createdAt,value
2018-05-21T00:00:44.695Z,1.90
2018-05-21T00:03:13.557Z,2.00
2018-05-21T00:05:42.445Z,2.10
2018-05-21T00:08:11.692Z,2.37
2018-05-21T00:10:40.586Z,2.10
2018-05-21T00:13:09.485Z,2.10
2018-05-21T00:15:38.522Z,2.30
2018-05-21T00:18:07.567Z,2.27
2018-05-21T00:20:36.513Z,2.13
2018-05-21T00:23:05.472Z,2.10
2018-05-21T00:25:34.436Z,2.13
2018-05-21T00:28:03.355Z,2.13
2018-05-21T00:30:32.287Z,2.00
2018-05-21T00:33:01.241Z,2.07
2018-05-21T00:35:30.149Z,2.23
2018-05-21T00:37:59.061Z,2.00
2018-05-21T00:40:28.009Z,2.27
2018-05-21T00:42:56.918Z,2.17
2018-05-21T00:45:25.824Z,2.40
2018-05-21T00:47:54.753Z,2.37
2018-05-21T00:50:23.758Z,2.10
2018-05-21T00:52:52.871Z,2.10
2018-05-21T00:55:27.853Z,2.20
2018-05-21T00:57:56.761Z,2.30
2018-05-21T01:00:25.677Z,1.90
2018-05-21T01:02:55.037Z,1.97
2018-05-21T01:05:23.952Z,1.90
2018-05-21T01:07:52.979Z,2.20
2018-05-21T01:10:21.917Z,2.27
2018-05-21T01:12:50.933Z,2.00
2018-05-21T01:15:19.923Z,2.10
2018-05-21T01:17:48.873Z,2.50
2018-05-21T01:20:17.784Z,2.20
2018-05-21T01:22:46.689Z,2.23
2018-05-21T01:25:15.629Z,2.20
2018-05-21T01:27:44.604Z,2.10
2018-05-21T01:30:13.505Z,2.10
2018-05-21T01:32:42.425Z,2.33
2018-05-21T01:35:11.301Z,2.30
2018-05-21T01:37:40.286Z,2.30
2018-05-21T01:40:09.280Z,2.43
2018-05-21T01:42:38.178Z,2.23
2018-05-21T01:45:07.044Z,2.40
2018-05-21T01:47:35.956Z,2.33
2018-05-21T01:50:04.809Z,2.50
2018-05-21T01:52:33.685Z,2.20
2018-05-21T01:55:02.594Z,2.50
2018-05-21T01:57:31.472Z,2.40
2018-05-21T02:00:00.525Z,2.37
2018-05-21T02:02:29.405Z,2.30
2018-05-21T02:04:58.304Z,2.40
2018-05-21T02:07:27.166Z,2.60
2018-05-21T02:09:56.057Z,2.33
2018-05-21T02:12:25.278Z,2.47
2018-05-21T02:14:54.132Z,2.30
2018-05-21T02:17:23.009Z,2.50
2018-05-21T02:19:51.900Z,2.33
2018-05-21T02:22:20.883Z,2.43
2018-05-21T02:24:49.804Z,2.17
2018-05-21T02:27:18.680Z,2.33
2018-05-21T02:29:47.568Z,2.13
2018-05-21T02:32:16.480Z,2.10
2018-05-21T02:34:45.364Z,2.20
2018-05-21T02:37:14.220Z,2.33
2018-05-21T02:39:43.115Z,2.50
2018-05-21T02:42:11.989Z,2.40
2018-05-21T02:44:40.972Z,2.53
2018-05-21T02:47:09.884Z,2.40
2018-05-21T02:49:38.956Z,2.47
2018-05-21T02:52:07.929Z,2.73
2018-05-21T02:54:36.803Z,2.53
2018-05-21T02:57:05.697Z,2.37
2018-05-21T02:59:34.584Z,2.50
2018-05-21T03:02:03.491Z,2.40
2018-05-21T03:04:32.376Z,2.60
2018-05-21T03:07:01.232Z,2.40
2018-05-21T03:09:30.370Z,2.13
2018-05-21T03:11:59.251Z,2.47
2018-05-21T03:14:28.137Z,2.43
2018-05-21T03:16:57.049Z,2.30
2018-05-21T03:19:25.941Z,2.47
2018-05-21T03:21:54.789Z,2.50
2018-05-21T03:24:23.689Z,2.50
2018-05-21T03:26:52.552Z,2.27
2018-05-21T03:29:21.432Z,2.20
2018-05-21T03:31:50.341Z,2.13
2018-05-21T03:34:19.217Z,2.60
2018-05-21T03:36:48.102Z,2.47
2018-05-21T03:39:17.297Z,2.33
2018-05-21T03:41:46.153Z,2.50
2018-05-21T03:44:15.033Z,2.60
2018-05-21T03:46:43.936Z,2.20
2018-05-21T03:49:12.820Z,2.80
2018-05-21T03:51:41.812Z,2.60
2018-05-21T03:54:10.709Z,2.53
2018-05-21T03:56:39.741Z,2.37
2018-05-21T03:59:14.779Z,2.50
2018-05-21T04:01:49.568Z,2.80
2018-05-21T04:04:18.424Z,2.47
2018-05-21T04:06:47.316Z,2.63
2018-05-21T04:09:16.221Z,2.50
2018-05-21T04:11:45.109Z,2.73
2018-05-21T04:14:13.962Z,2.60
2018-05-21T04:16:42.960Z,2.50
2018-05-21T04:19:11.856Z,2.60
2018-05-21T04:21:40.739Z,2.73
2018-05-21T04:24:09.940Z,2.90
2018-05-21T04:26:38.792Z,2.63
2018-05-21T04:29:07.852Z,2.67
2018-05-21T04:31:36.729Z,2.57
2018-05-21T04:34:05.584Z,2.57
2018-05-21T04:36:34.497Z,2.47
2018-05-21T04:39:03.419Z,2.80
2018-05-21T04:41:32.289Z,2.37
2018-05-21T04:44:01.141Z,2.70
2018-05-21T04:46:30.044Z,2.90
2018-05-21T04:48:58.918Z,3.00
2018-05-21T04:51:27.793Z,2.50
2018-05-21T04:53:56.705Z,2.70
2018-05-21T04:56:25.628Z,2.40
2018-05-21T04:58:54.622Z,2.50
2018-05-21T05:01:23.513Z,2.70
2018-05-21T05:03:52.365Z,2.60
2018-05-21T05:06:21.215Z,2.90
2018-05-21T05:08:50.085Z,2.77
2018-05-21T05:11:18.937Z,2.50
2018-05-21T05:13:47.789Z,2.87
2018-05-21T05:16:16.661Z,2.57
2018-05-21T05:18:45.542Z,2.53
2018-05-21T05:21:14.420Z,2.53
2018-05-21T05:23:43.297Z,2.80
2018-05-21T05:26:12.159Z,2.40
2018-05-21T05:28:41.040Z,2.40
2018-05-21T05:31:09.938Z,2.40
2018-05-21T05:33:38.825Z,2.40
2018-05-21T05:36:07.780Z,2.80
2018-05-21T05:38:36.599Z,2.37
2018-05-21T05:41:05.480Z,2.87
2018-05-21T05:43:34.341Z,3.00
2018-05-21T05:46:03.297Z,2.70
2018-05-21T05:48:32.257Z,2.83
2018-05-21T05:51:01.137Z,2.90
2018-05-21T05:53:30.040Z,2.47
2018-05-21T05:55:58.893Z,2.60
2018-05-21T05:58:27.753Z,2.40
2018-05-21T06:00:56.640Z,2.67
2018-05-21T06:03:25.524Z,2.43
2018-05-21T06:05:54.377Z,2.67
2018-05-21T06:08:23.275Z,2.50
2018-05-21T06:10:52.381Z,2.70
2018-05-21T06:13:21.369Z,2.37
2018-05-21T06:15:50.493Z,2.47
2018-05-21T06:18:19.349Z,2.43
2018-05-21T06:20:48.197Z,2.73
2018-05-21T06:23:17.104Z,2.50
2018-05-21T06:25:46.059Z,2.63
2018-05-21T06:28:14.895Z,2.70
2018-05-21T06:30:43.797Z,2.43
2018-05-21T06:33:12.672Z,2.27
2018-05-21T06:35:41.521Z,2.70
2018-05-21T06:38:10.422Z,2.77
2018-05-21T06:40:39.276Z,2.70
2018-05-21T06:43:08.125Z,2.37
2018-05-21T06:45:37.020Z,2.33
2018-05-21T06:48:05.897Z,2.10
2018-05-21T06:50:34.789Z,2.57
2018-05-21T06:53:03.702Z,2.57
2018-05-21T06:55:32.661Z,2.53
2018-05-21T06:58:01.545Z,2.27
2018-05-21T07:00:31.019Z,2.60
2018-05-21T07:03:00.169Z,2.40
2018-05-21T07:05:29.017Z,2.50
2018-05-21T07:07:57.899Z,2.60
2018-05-21T07:10:26.770Z,2.73
2018-05-21T07:12:55.657Z,2.80
2018-05-21T07:15:24.543Z,2.60
2018-05-21T07:17:53.417Z,2.67
2018-05-21T07:20:22.301Z,2.30
2018-05-21T07:22:51.168Z,2.50
2018-05-21T07:25:20.037Z,2.80
2018-05-21T07:27:48.884Z,2.60
2018-05-21T07:30:17.978Z,2.70
2018-05-21T07:32:46.839Z,2.83
2018-05-21T07:35:15.832Z,2.30
2018-05-21T07:37:44.720Z,2.70
2018-05-21T07:40:13.576Z,2.70
2018-05-21T07:42:42.424Z,2.50
2018-05-21T07:45:11.328Z,2.37
2018-05-21T07:47:41.149Z,2.50
2018-05-21T07:50:10.282Z,2.63
2018-05-21T07:52:39.153Z,2.33
2018-05-21T07:55:08.047Z,2.50
2018-05-21T07:57:36.937Z,2.47
2018-05-21T08:00:05.875Z,2.80
2018-05-21T08:02:34.725Z,2.60
2018-05-21T08:05:03.675Z,2.60
2018-05-21T08:07:32.623Z,2.30
2018-05-21T08:10:01.550Z,2.70
2018-05-21T08:12:30.444Z,2.60
2018-05-21T08:14:59.326Z,2.63
2018-05-21T08:17:28.177Z,2.60
2018-05-21T08:19:57.040Z,2.53
2018-05-21T08:22:25.949Z,2.57
2018-05-21T08:24:55.247Z,2.60
2018-05-21T08:27:23.871Z,3.00
2018-05-21T08:29:52.956Z,2.37
2018-05-21T08:32:21.796Z,2.23
2018-05-21T08:34:50.692Z,2.57
2018-05-21T08:37:19.617Z,2.60
2018-05-21T08:39:48.622Z,2.90
2018-05-21T08:42:17.513Z,2.50
2018-05-21T08:44:46.610Z,2.37
2018-05-21T08:47:15.505Z,2.40
2018-05-21T08:49:44.422Z,2.33
2018-05-21T08:52:13.328Z,2.33
2018-05-21T08:54:42.232Z,2.50
2018-05-21T08:57:11.197Z,2.63
2018-05-21T08:59:40.107Z,2.30
2018-05-21T09:02:08.960Z,2.17
2018-05-21T09:04:37.868Z,2.40
2018-05-21T09:07:06.731Z,2.50
2018-05-21T09:09:35.585Z,2.43
2018-05-21T09:12:04.526Z,2.20
2018-05-21T09:14:33.948Z,2.20
2018-05-21T09:17:02.852Z,2.50
2018-05-21T09:19:31.733Z,2.27
2018-05-21T09:22:00.901Z,2.20
2018-05-21T09:24:29.809Z,2.27
2018-05-21T09:26:58.716Z,2.40
2018-05-21T09:29:27.617Z,2.13
2018-05-21T09:31:56.488Z,2.30
2018-05-21T09:34:25.337Z,2.23
2018-05-21T09:36:54.204Z,2.53
2018-05-21T09:39:23.470Z,2.23
2018-05-21T09:41:52.346Z,2.30
2018-05-21T09:44:21.253Z,2.10
2018-05-21T09:46:50.229Z,2.33
2018-05-21T09:49:19.120Z,2.23
2018-05-21T09:51:48.183Z,2.40
2018-05-21T09:54:17.141Z,2.20
2018-05-21T09:56:46.017Z,2.30
2018-05-21T09:59:14.920Z,2.30
2018-05-21T10:01:43.769Z,2.10
2018-05-21T10:04:12.617Z,2.10
2018-05-21T10:06:41.877Z,2.20
2018-05-21T10:09:10.760Z,2.10
2018-05-21T10:11:39.657Z,2.30
2018-05-21T10:14:08.673Z,2.10
2018-05-21T10:16:37.553Z,2.23
2018-05-21T10:19:06.409Z,1.83
2018-05-21T10:21:35.301Z,2.30
2018-05-21T10:24:04.218Z,2.30
2018-05-21T10:26:33.092Z,2.70
2018-05-21T10:29:02.464Z,2.03
2018-05-21T10:31:31.330Z,2.13
2018-05-21T10:34:00.200Z,2.17
2018-05-21T10:36:29.105Z,2.13
2018-05-21T10:38:57.960Z,2.30
2018-05-21T10:41:26.813Z,2.23
2018-05-21T10:43:55.748Z,2.30
2018-05-21T10:46:24.557Z,2.20
2018-05-21T10:48:53.975Z,2.40
2018-05-21T10:51:22.925Z,2.37
2018-05-21T10:53:51.765Z,2.20
2018-05-21T10:56:20.798Z,1.90
2018-05-21T10:58:49.598Z,2.20
2018-05-21T11:01:18.491Z,2.13
2018-05-21T11:03:47.430Z,2.10
2018-05-21T11:06:16.365Z,1.87
2018-05-21T11:08:45.249Z,2.10
2018-05-21T11:11:14.115Z,1.90
2018-05-21T11:13:42.985Z,2.23
2018-05-21T11:16:11.845Z,1.90
2018-05-21T11:18:40.760Z,1.93
2018-05-21T11:21:09.656Z,2.00
2018-05-21T11:23:38.509Z,2.00
2018-05-21T11:26:07.372Z,2.10
2018-05-21T11:28:36.255Z,2.03
2018-05-21T11:31:05.204Z,2.00
2018-05-21T11:33:34.056Z,1.70
2018-05-21T11:36:02.945Z,2.00
2018-05-21T11:38:31.829Z,2.37
2018-05-21T11:41:00.721Z,2.20
2018-05-21T11:43:29.632Z,2.07
2018-05-21T11:45:58.492Z,1.70
2018-05-21T11:48:27.481Z,1.90
2018-05-21T11:50:56.439Z,2.13
2018-05-21T11:53:25.322Z,2.07
2018-05-21T11:55:54.206Z,2.00
2018-05-21T11:58:23.111Z,2.00
2018-05-21T12:00:52.002Z,1.80
2018-05-21T12:03:20.860Z,1.90
2018-05-21T12:05:49.889Z,2.07
2018-05-21T12:08:18.817Z,1.83
2018-05-21T12:10:47.784Z,2.03
2018-05-21T12:13:16.869Z,1.83
2018-05-21T12:15:45.756Z,1.97
2018-05-21T12:18:14.765Z,2.00
2018-05-21T12:20:43.665Z,1.93
2018-05-21T12:23:12.777Z,1.80
2018-05-21T12:25:41.665Z,1.83
2018-05-21T12:28:10.570Z,1.70
2018-05-21T12:30:39.518Z,1.70
2018-05-21T12:33:08.393Z,2.00
2018-05-21T12:35:37.301Z,1.63
2018-05-21T12:38:06.205Z,1.97
2018-05-21T12:40:35.062Z,1.93
2018-05-21T12:43:03.941Z,1.80
2018-05-21T12:45:32.792Z,2.20
2018-05-21T12:48:01.684Z,1.93
2018-05-21T12:50:31.064Z,1.90
2018-05-21T12:52:59.989Z,1.80
2018-05-21T12:55:28.873Z,2.00
2018-05-21T12:57:57.753Z,1.93
2018-05-21T13:00:26.653Z,1.90
2018-05-21T13:02:55.561Z,1.80
2018-05-21T13:05:24.445Z,1.77
2018-05-21T13:07:53.330Z,2.00
2018-05-21T13:10:22.226Z,1.87
2018-05-21T13:12:51.151Z,1.97
2018-05-21T13:15:20.233Z,1.90
2018-05-21T13:17:49.173Z,1.83
2018-05-21T13:20:18.300Z,1.87
2018-05-21T13:22:47.177Z,2.10
2018-05-21T13:25:16.080Z,1.90
2018-05-21T13:27:45.056Z,1.90
2018-05-21T13:30:13.954Z,2.10
2018-05-21T13:32:42.837Z,2.20
2018-05-21T13:35:11.725Z,2.50
2018-05-21T13:37:40.592Z,3.10
2018-05-21T13:40:09.469Z,3.43
2018-05-21T13:42:38.349Z,3.40
2018-05-21T13:45:07.231Z,3.20
2018-05-21T13:47:36.101Z,3.30
2018-05-21T13:50:04.981Z,3.10
2018-05-21T13:52:33.929Z,3.00
2018-05-21T13:55:06.774Z,3.10
2018-05-21T13:57:35.669Z,3.20
2018-05-21T14:00:04.557Z,3.10
2018-05-21T14:02:33.444Z,2.70
2018-05-21T14:05:02.337Z,2.93
2018-05-21T14:07:31.511Z,2.90
2018-05-21T14:10:00.386Z,3.33
2018-05-21T14:12:29.403Z,3.00
2018-05-21T14:14:58.283Z,2.87
2018-05-21T14:17:27.141Z,2.60
2018-05-21T14:19:56.042Z,2.93
2018-05-21T14:22:24.908Z,2.80
2018-05-21T14:24:53.806Z,2.80
2018-05-21T14:27:22.801Z,2.50
2018-05-21T14:29:51.747Z,2.80
2018-05-21T14:32:20.714Z,2.70
2018-05-21T14:34:49.816Z,2.73
2018-05-21T14:37:18.821Z,2.80
2018-05-21T14:39:47.737Z,2.60
2018-05-21T14:42:16.628Z,2.60
2018-05-21T14:44:45.763Z,2.63
2018-05-21T14:47:14.620Z,2.90
2018-05-21T14:49:43.488Z,2.43
2018-05-21T14:52:12.357Z,2.40
2018-05-21T14:54:41.213Z,2.47
2018-05-21T14:57:10.065Z,2.67
2018-05-21T14:59:38.957Z,2.30
2018-05-21T15:02:07.894Z,2.53
2018-05-21T15:04:36.720Z,2.73
2018-05-21T15:07:05.611Z,3.00
2018-05-21T15:09:34.485Z,2.80
2018-05-21T15:12:03.336Z,2.97
2018-05-21T15:14:32.195Z,2.60
2018-05-21T15:17:01.059Z,3.23
2018-05-21T15:19:30.288Z,3.53
2018-05-21T15:21:59.275Z,3.70
2018-05-21T15:24:28.130Z,3.60
2018-05-21T15:26:57.057Z,3.50
2018-05-21T15:29:25.909Z,3.10
2018-05-21T15:31:58.240Z,3.77
2018-05-21T15:34:27.117Z,3.50
2018-05-21T15:36:56.104Z,3.47
2018-05-21T15:39:25.101Z,3.70
2018-05-21T15:41:53.986Z,3.13
2018-05-21T15:44:23.188Z,3.20
2018-05-21T15:46:52.214Z,3.10
2018-05-21T15:49:21.279Z,3.37
2018-05-21T15:51:50.169Z,3.30
2018-05-21T15:54:19.061Z,3.37
2018-05-21T15:56:48.057Z,3.07
2018-05-21T15:59:17.061Z,3.20
2018-05-21T16:01:46.050Z,3.20
2018-05-21T16:04:14.940Z,3.03
2018-05-21T16:06:43.887Z,2.97
2018-05-21T16:09:12.832Z,2.93
2018-05-21T16:11:41.634Z,3.10
2018-05-21T16:14:10.513Z,2.87
2018-05-21T16:16:39.378Z,2.97
2018-05-21T16:19:08.237Z,2.67
2018-05-21T16:21:37.278Z,3.07
2018-05-21T16:24:06.372Z,3.43
2018-05-21T16:26:35.377Z,3.20
2018-05-21T16:29:04.237Z,2.93
2018-05-21T16:31:33.150Z,3.27
2018-05-21T16:34:02.057Z,2.80
2018-05-21T16:36:30.946Z,2.70
2018-05-21T16:38:59.832Z,2.67
2018-05-21T16:41:28.752Z,2.80
2018-05-21T16:43:57.611Z,3.30
2018-05-21T16:46:26.706Z,3.13
2018-05-21T16:48:55.635Z,2.93
2018-05-21T16:51:24.596Z,3.00
2018-05-21T16:53:53.679Z,3.20
2018-05-21T16:56:22.688Z,2.57
2018-05-21T16:58:51.674Z,3.00
2018-05-21T17:01:20.529Z,2.77
2018-05-21T17:03:49.669Z,2.37
2018-05-21T17:06:18.541Z,2.80
2018-05-21T17:08:47.655Z,2.63
2018-05-21T17:11:17.403Z,2.50
2018-05-21T17:13:46.565Z,2.60
2018-05-21T17:16:15.430Z,3.00
2018-05-21T17:18:44.347Z,3.30
2018-05-21T17:21:13.239Z,4.07
2018-05-21T17:23:42.225Z,3.60
2018-05-21T17:26:11.081Z,3.97
2018-05-21T17:28:40.044Z,3.90
2018-05-21T17:31:08.920Z,4.00
2018-05-21T17:33:38.097Z,3.73
2018-05-21T17:36:06.993Z,3.77
2018-05-21T17:38:35.844Z,4.30
2018-05-21T17:41:04.704Z,3.97
2018-05-21T17:43:34.796Z,4.03
2018-05-21T17:46:03.849Z,3.33
2018-05-21T17:48:32.986Z,3.60
2018-05-21T17:51:01.844Z,3.30
2018-05-21T17:53:30.866Z,3.30
2018-05-21T17:55:59.744Z,3.77
2018-05-21T17:58:29.616Z,3.40
2018-05-21T18:00:58.619Z,3.40
2018-05-21T18:03:27.677Z,3.53
2018-05-21T18:05:56.555Z,3.10
2018-05-21T18:08:25.406Z,3.43
2018-05-21T18:10:54.464Z,3.27
2018-05-21T18:13:23.538Z,3.10
2018-05-21T18:15:52.448Z,3.03
2018-05-21T18:18:21.639Z,3.20
2018-05-21T18:20:50.502Z,3.10
2018-05-21T18:23:19.422Z,3.10
2018-05-21T18:25:48.401Z,3.30
2018-05-21T18:28:17.252Z,3.43
2018-05-21T18:30:46.493Z,3.13
2018-05-21T18:33:15.341Z,3.00
2018-05-21T18:35:44.598Z,3.33
2018-05-21T18:38:13.476Z,3.30
2018-05-21T18:40:42.573Z,3.10
2018-05-21T18:43:12.181Z,3.30
2018-05-21T18:45:41.073Z,3.27
2018-05-21T18:48:09.940Z,3.03
2018-05-21T18:50:38.950Z,3.20
2018-05-21T18:53:07.850Z,3.10
2018-05-21T18:55:36.737Z,3.20
2018-05-21T18:58:05.853Z,2.90
2018-05-21T19:00:35.017Z,3.10
2018-05-21T19:03:03.872Z,3.03
2018-05-21T19:05:32.822Z,3.10
2018-05-21T19:08:01.708Z,3.20
2018-05-21T19:10:30.646Z,3.43
2018-05-21T19:12:59.697Z,3.30
2018-05-21T19:15:28.793Z,2.90
2018-05-21T19:17:57.649Z,3.07
2018-05-21T19:20:26.796Z,3.47
2018-05-21T19:22:55.977Z,3.23
2018-05-21T19:25:24.971Z,3.13
2018-05-21T19:27:53.873Z,3.50
2018-05-21T19:30:23.072Z,3.00
2018-05-21T19:32:51.929Z,3.17
2018-05-21T19:35:20.798Z,3.33
2018-05-21T19:37:49.857Z,3.40
2018-05-21T19:40:18.770Z,3.33
2018-05-21T19:42:47.749Z,3.47
2018-05-21T19:45:16.720Z,3.67
2018-05-21T19:47:45.619Z,3.03
2018-05-21T19:50:14.476Z,3.27
2018-05-21T19:52:43.404Z,3.23
2018-05-21T19:55:12.432Z,3.17
2018-05-21T19:57:41.612Z,3.17
2018-05-21T20:00:10.890Z,2.97
2018-05-21T20:02:39.992Z,3.60
2018-05-21T20:05:08.861Z,3.47
2018-05-21T20:07:37.741Z,3.33
2018-05-21T20:10:06.682Z,3.10
2018-05-21T20:12:35.628Z,3.47
2018-05-21T20:15:04.722Z,3.43
2018-05-21T20:17:33.637Z,3.90
2018-05-21T20:20:02.501Z,3.27
2018-05-21T20:22:31.473Z,3.93
2018-05-21T20:25:00.428Z,3.40
2018-05-21T20:27:29.320Z,3.43
2018-05-21T20:29:58.217Z,3.83
2018-05-21T20:32:27.498Z,3.80
2018-05-21T20:34:56.492Z,4.03
2018-05-21T20:37:25.373Z,3.50
2018-05-21T20:39:54.423Z,4.00
2018-05-21T20:42:23.579Z,3.40
2018-05-21T20:44:52.456Z,3.83
2018-05-21T20:47:21.591Z,3.60
2018-05-21T20:49:50.556Z,4.00
2018-05-21T20:52:19.434Z,3.93
2018-05-21T20:54:48.330Z,3.80
2018-05-21T20:57:17.196Z,4.27
2018-05-21T20:59:46.273Z,3.50
2018-05-21T21:02:15.245Z,3.60
2018-05-21T21:04:44.127Z,3.93
2018-05-21T21:07:13.021Z,3.97
2018-05-21T21:09:41.945Z,3.70
2018-05-21T21:12:11.091Z,3.90
2018-05-21T21:14:40.086Z,3.57
2018-05-21T21:17:09.082Z,3.40
2018-05-21T21:19:37.982Z,3.60
2018-05-21T21:22:07.067Z,3.80
2018-05-21T21:24:35.979Z,3.73
2018-05-21T21:27:04.849Z,3.73
2018-05-21T21:29:33.856Z,3.53
2018-05-21T21:32:02.745Z,3.73
2018-05-21T21:34:31.892Z,3.73
2018-05-21T21:37:01.179Z,4.30
2018-05-21T21:39:30.125Z,4.23
2018-05-21T21:41:59.218Z,4.10
2018-05-21T21:44:28.705Z,4.10
2018-05-21T21:46:57.773Z,4.00
2018-05-21T21:49:26.661Z,4.10
2018-05-21T21:51:55.717Z,4.10
2018-05-21T21:54:24.844Z,3.87
2018-05-21T21:56:53.712Z,4.00
2018-05-21T21:59:22.787Z,3.70
2018-05-21T22:01:51.885Z,3.80
2018-05-21T22:04:20.797Z,4.00
2018-05-21T22:06:49.673Z,3.60
2018-05-21T22:09:18.756Z,3.60
2018-05-21T22:11:47.601Z,3.63
2018-05-21T22:14:16.768Z,3.87
2018-05-21T22:16:45.740Z,3.87
2018-05-21T22:19:14.758Z,3.77
2018-05-21T22:21:43.629Z,4.20
2018-05-21T22:24:12.611Z,3.97
2018-05-21T22:26:41.492Z,4.07
2018-05-21T22:29:10.513Z,3.80
2018-05-21T22:31:39.596Z,3.67
2018-05-21T22:34:08.448Z,3.50
2018-05-21T22:36:37.477Z,3.87
2018-05-21T22:39:06.373Z,4.00
2018-05-21T22:41:35.255Z,4.10
2018-05-21T22:44:04.383Z,3.80
2018-05-21T22:46:33.252Z,3.80
2018-05-21T22:49:02.377Z,3.60
2018-05-21T22:51:31.253Z,4.00
2018-05-21T22:54:00.128Z,3.80
2018-05-21T22:56:29.024Z,4.43
2018-05-21T22:58:58.225Z,3.90
2018-05-21T23:01:27.174Z,3.70
2018-05-21T23:03:56.316Z,3.93
2018-05-21T23:06:25.204Z,3.90
2018-05-21T23:08:54.132Z,3.40
2018-05-21T23:11:23.077Z,4.30
2018-05-21T23:13:51.945Z,3.97
2018-05-21T23:16:20.973Z,3.97
2018-05-21T23:18:49.968Z,3.70
2018-05-21T23:21:18.965Z,3.83
2018-05-21T23:23:47.975Z,3.97
2018-05-21T23:26:16.849Z,4.00
2018-05-21T23:28:45.944Z,3.87
2018-05-21T23:31:14.937Z,4.43
2018-05-21T23:33:43.784Z,4.00
2018-05-21T23:36:12.634Z,4.13
2018-05-21T23:38:41.609Z,4.30
2018-05-21T23:41:10.497Z,3.97
2018-05-21T23:43:39.499Z,4.00
2018-05-21T23:46:08.617Z,3.73
2018-05-21T23:48:37.497Z,4.00
2018-05-21T23:51:06.471Z,4.37
2018-05-21T23:53:35.399Z,4.20
2018-05-21T23:56:04.273Z,4.63
2018-05-21T23:58:33.256Z,4.47
